Ramsau, Austria
Current Conditions -  °F | °C
As of 8:50 AM on Saturday 20 Dec 2014 (Local Time) from LOWS Reporting Station
Broken Clouds Broken Clouds  
Wind Chill: 41°   Ceiling: 4000
Heat Index: 45°   Visibility: 6mi
Dew Point: 36°   Wind: 6mph
Humidity: 71%   Direction: 240°WSW
Pressure: 30.27"   Gusts: NA
Location:  47.42°N, 13.63°E
Report Text: LOWS 200650Z 24005KT 200V280 9999 FEW025 BKN040 07/02 Q1025 NOSIG
Loading
Personal Weather Stations






























Interactive Weather Map New forecast layout! Learn more

10-Day Weather Forecast

Advertisements
Track Severe Weather on mobile